Time;durP1;ratioP1;P1;durP2;ratioP2;P2;SDS_P1;SDS_P2;PMS_P1;PMS_P2;Temp;Humidity;BMP_temperature;BMP_pressure;BME280_temperature;BME280_humidity;BME280_pressure;Samples;Min_cycle;Max_cycle;Signal;HPM_P1;HPM_P2
2022/01/24 00:02:14;;;;;;;7.93;7.23;;;5.00;99.90;;;;;;10529245;28;20231;-78
2022/01/24 00:07:21;;;;;;;7.53;6.83;;;4.90;99.90;;;;;;10516077;28;20223;-78
2022/01/24 00:12:33;;;;;;;9.43;7.60;;;4.80;99.90;;;;;;10519945;28;20228;-77
2022/01/24 00:17:39;;;;;;;7.97;7.20;;;4.70;99.90;;;;;;10531261;28;20306;-77
2022/01/24 00:28:05;;;;;;;8.90;8.00;;;4.50;99.90;;;;;;10514847;28;20215;-77
2022/01/24 00:33:09;;;;;;;9.03;8.13;;;4.40;99.90;;;;;;10499272;28;20204;-77
2022/01/24 00:38:11;;;;;;;9.50;7.97;;;4.30;99.90;;;;;;10517975;28;20220;-77
2022/01/24 00:43:23;;;;;;;8.40;7.50;;;4.20;99.90;;;;;;10510053;28;20206;-78
2022/01/24 00:48:36;;;;;;;10.77;8.93;;;4.10;99.90;;;;;;10506583;28;20220;-78
2022/01/24 00:53:51;;;;;;;9.33;8.43;;;4.20;99.90;;;;;;10511053;28;20227;-78
2022/01/24 00:58:53;;;;;;;8.97;8.07;;;4.10;99.90;;;;;;10525411;28;20227;-77
2022/01/24 01:03:56;;;;;;;9.13;8.23;;;4.10;99.90;;;;;;10520101;28;20699;-77
2022/01/24 01:19:39;;;;;;;10.53;9.53;;;4.00;99.90;;;;;;10507453;28;20204;-78
2022/01/24 01:24:47;;;;;;;10.23;9.23;;;4.00;99.90;;;;;;10509693;28;20207;-77
2022/01/24 01:29:56;;;;;;;9.53;8.53;;;4.00;99.90;;;;;;10491506;28;20600;-77
2022/01/24 01:35:15;;;;;;;10.53;9.43;;;3.90;99.90;;;;;;10503977;28;20191;-77
2022/01/24 01:52:17;;;;;;;10.43;9.43;;;3.90;99.90;;;;;;10609070;22;20233;-78
2022/01/24 01:56:44;;;;;;;11.17;10.07;;;3.80;99.90;;;;;;10565793;28;20264;-78
2022/01/24 02:01:46;;;;;;;11.13;10.03;;;3.80;99.90;;;;;;10543625;28;20688;-79
2022/01/24 02:06:50;;;;;;;11.70;10.50;;;3.80;99.90;;;;;;10537285;28;20223;-78
2022/01/24 02:11:54;;;;;;;12.57;9.83;;;3.80;99.90;;;;;;10575623;28;20200;-78
2022/01/24 02:17:01;;;;;;;8.60;7.63;;;3.80;99.90;;;;;;10571591;28;20309;-77
2022/01/24 02:22:39;;;;;;;13.43;11.00;;;3.80;99.90;;;;;;10553967;28;20200;-78
2022/01/24 02:27:41;;;;;;;11.37;10.13;;;3.80;99.90;;;;;;10577831;28;20223;-78
2022/01/24 02:32:43;;;;;;;11.70;10.23;;;3.80;99.90;;;;;;10543284;28;20203;-78
2022/01/24 02:37:47;;;;;;;14.17;12.67;;;3.70;99.90;;;;;;10551752;28;20314;-78
2022/01/24 02:48:25;;;;;;;11.37;10.17;;;3.70;99.90;;;;;;10553652;28;20650;-78
2022/01/24 02:53:31;;;;;;;11.77;10.27;;;3.70;99.90;;;;;;10556374;28;20218;-78
2022/01/24 02:58:34;;;;;;;11.83;9.23;;;3.70;99.90;;;;;;10542656;28;20391;-78
2022/01/24 03:03:37;;;;;;;10.33;9.33;;;3.70;99.90;;;;;;10553623;28;20214;-77
2022/01/24 03:08:42;;;;;;;10.40;9.30;;;3.60;99.90;;;;;;10549721;28;20685;-78
2022/01/24 03:13:44;;;;;;;10.97;9.87;;;3.60;99.90;;;;;;10557267;28;20257;-77
2022/01/24 03:18:46;;;;;;;10.50;9.40;;;3.60;99.90;;;;;;10561272;28;20219;-78
2022/01/24 03:23:49;;;;;;;10.90;9.87;;;3.60;99.90;;;;;;10561389;28;20203;-77
2022/01/24 03:28:51;;;;;;;11.93;10.60;;;3.50;99.90;;;;;;10555913;28;20226;-78
2022/01/24 03:33:54;;;;;;;11.70;10.50;;;3.60;99.90;;;;;;10534079;28;20245;-77
2022/01/24 03:38:57;;;;;;;11.23;9.83;;;3.50;99.90;;;;;;10530994;28;20238;-77
2022/01/24 03:44:03;;;;;;;11.70;10.60;;;3.50;99.90;;;;;;10536830;28;20200;-78
2022/01/24 03:49:45;;;;;;;12.00;10.77;;;3.50;99.90;;;;;;10549618;28;20622;-78
2022/01/24 03:54:32;;;;;;;11.17;10.10;;;3.50;99.90;;;;;;10571935;28;20536;-77
2022/01/24 03:59:34;;;;;;;10.23;9.23;;;3.50;99.90;;;;;;10578638;28;20223;-77
2022/01/24 04:04:36;;;;;;;12.17;10.97;;;3.40;99.90;;;;;;10554489;28;20209;-78
2022/01/24 04:09:41;;;;;;;11.83;10.63;;;3.40;99.90;;;;;;10562556;28;20223;-77
2022/01/24 04:15:06;;;;;;;12.37;11.13;;;3.40;99.90;;;;;;10538500;28;20389;-78
2022/01/24 04:25:30;;;;;;;11.07;10.07;;;3.40;99.90;;;;;;10578669;28;20232;-78
2022/01/24 04:30:32;;;;;;;12.33;11.07;;;3.40;99.90;;;;;;10564349;28;20770;-77
2022/01/24 04:35:34;;;;;;;11.33;10.23;;;3.40;99.90;;;;;;10583920;28;20226;-77
2022/01/24 04:40:38;;;;;;;11.97;10.80;;;3.40;99.90;;;;;;10580051;28;20223;-77
2022/01/24 04:46:00;;;;;;;11.20;10.10;;;3.40;99.90;;;;;;10577333;28;20203;-77
2022/01/24 04:51:11;;;;;;;13.20;11.60;;;3.40;99.90;;;;;;10564288;28;20227;-77
2022/01/24 04:56:14;;;;;;;13.20;12.00;;;3.40;99.90;;;;;;10530349;28;20203;-77
2022/01/24 05:01:16;;;;;;;11.97;10.77;;;3.40;99.90;;;;;;10571219;28;20261;-77
2022/01/24 05:06:18;;;;;;;12.37;11.27;;;3.40;99.90;;;;;;10542786;28;20661;-78
2022/01/24 05:11:32;;;;;;;11.60;10.50;;;3.40;99.90;;;;;;10544224;28;20247;-78
2022/01/24 05:27:15;;;;;;;17.37;14.13;;;3.30;99.90;;;;;;10550137;28;20206;-78
2022/01/24 05:32:17;;;;;;;22.77;17.30;;;3.20;99.90;;;;;;10551570;28;20290;-78
2022/01/24 05:37:19;;;;;;;15.43;12.87;;;3.20;99.90;;;;;;10581097;28;20258;-78
2022/01/24 05:42:22;;;;;;;14.47;12.97;;;3.20;99.90;;;;;;10532903;28;20207;-78
2022/01/24 05:47:25;;;;;;;13.20;11.80;;;3.20;99.90;;;;;;10550022;28;20226;-78
2022/01/24 05:52:27;;;;;;;14.20;12.90;;;3.20;99.90;;;;;;10528939;28;20253;-78
2022/01/24 05:57:30;;;;;;;14.40;12.90;;;3.10;99.90;;;;;;10576687;28;20222;-78
2022/01/24 06:02:33;;;;;;;13.47;12.17;;;3.20;99.90;;;;;;10569935;28;20203;-78
2022/01/24 06:07:35;;;;;;;14.57;13.17;;;3.10;99.90;;;;;;10566134;28;20226;-75
2022/01/24 06:12:39;;;;;;;15.70;14.20;;;3.10;99.90;;;;;;10568428;28;20214;-77
2022/01/24 06:17:41;;;;;;;14.60;13.20;;;3.10;99.90;;;;;;10558144;28;20310;-77
2022/01/24 06:22:43;;;;;;;14.40;12.63;;;3.10;99.90;;;;;;10576581;28;20609;-77
2022/01/24 06:27:46;;;;;;;15.03;13.43;;;3.10;99.90;;;;;;10558693;28;20219;-77
2022/01/24 06:32:48;;;;;;;13.87;12.57;;;3.10;99.90;;;;;;10580035;28;20199;-77
2022/01/24 06:37:50;;;;;;;14.00;12.60;;;3.20;99.90;;;;;;10538162;28;20234;-77
2022/01/24 06:42:54;;;;;;;13.87;12.47;;;3.30;99.90;;;;;;10551603;28;20646;-77
2022/01/24 06:47:56;;;;;;;14.07;12.67;;;3.40;99.90;;;;;;10554964;28;20729;-77
2022/01/24 06:52:58;;;;;;;18.23;16.47;;;3.50;99.90;;;;;;10571293;28;20686;-77
2022/01/24 06:58:02;;;;;;;20.17;18.07;;;3.60;99.90;;;;;;10556464;28;20219;-77
2022/01/24 07:03:04;;;;;;;18.57;16.70;;;3.70;99.90;;;;;;10555762;28;20314;-77
2022/01/24 07:08:06;;;;;;;24.00;21.50;;;3.80;99.90;;;;;;10575950;28;20225;-77
2022/01/24 07:13:09;;;;;;;19.23;17.23;;;3.90;99.90;;;;;;10580264;28;20679;-77
2022/01/24 07:23:30;;;;;;;18.23;16.33;;;4.10;99.90;;;;;;10534616;28;20202;-77
2022/01/24 07:28:33;;;;;;;19.13;17.23;;;4.20;99.90;;;;;;10556166;28;20681;-78
2022/01/24 07:33:35;;;;;;;16.73;14.93;;;4.30;99.90;;;;;;10575782;28;20569;-77
2022/01/24 07:38:37;;;;;;;16.50;14.90;;;4.40;99.90;;;;;;10567798;22;20255;-80
2022/01/24 07:43:41;;;;;;;17.03;15.30;;;4.50;99.90;;;;;;10515326;28;20241;-81
2022/01/24 07:48:43;;;;;;;16.40;14.80;;;4.60;99.90;;;;;;10514196;28;20211;-79
2022/01/24 07:53:46;;;;;;;16.23;14.53;;;4.70;99.90;;;;;;10544502;28;20283;-79
2022/01/24 07:58:49;;;;;;;15.80;14.17;;;4.70;99.90;;;;;;10544745;28;20215;-81
2022/01/24 08:03:52;;;;;;;14.70;13.20;;;4.80;99.90;;;;;;10548214;28;20196;-79
2022/01/24 08:08:54;;;;;;;17.13;14.97;;;5.00;99.90;;;;;;10548357;28;20243;-80
2022/01/24 08:13:58;;;;;;;16.90;15.20;;;5.10;99.90;;;;;;10551333;28;20227;-80
2022/01/24 08:19:00;;;;;;;17.13;13.87;;;5.20;99.90;;;;;;10540790;28;20204;-78
2022/01/24 08:24:02;;;;;;;16.63;14.87;;;5.20;99.90;;;;;;10546296;28;20414;-79
2022/01/24 08:29:06;;;;;;;16.17;14.47;;;5.30;99.90;;;;;;10546489;28;20223;-80
2022/01/24 08:34:08;;;;;;;18.90;14.90;;;5.40;99.90;;;;;;10550501;28;20198;-81
2022/01/24 08:39:10;;;;;;;16.10;14.40;;;5.40;99.90;;;;;;10547455;28;20224;-81
2022/01/24 08:44:21;;;;;;;16.27;14.50;;;5.50;99.90;;;;;;10542459;28;20267;-81
2022/01/24 08:49:23;;;;;;;15.63;14.03;;;5.70;99.90;;;;;;10546191;28;20269;-79
2022/01/24 08:54:26;;;;;;;18.63;15.30;;;5.80;99.90;;;;;;10550527;28;20207;-80
2022/01/24 08:59:30;;;;;;;16.93;15.13;;;5.90;99.90;;;;;;10550433;28;20224;-81
2022/01/24 09:04:35;;;;;;;20.00;14.87;;;6.00;99.90;;;;;;10531926;28;20196;-81
2022/01/24 09:09:38;;;;;;;16.50;14.80;;;6.10;99.90;;;;;;10550950;28;20212;-80
2022/01/24 09:14:44;;;;;;;16.80;14.90;;;6.30;99.90;;;;;;10530529;28;20203;-81
2022/01/24 09:19:46;;;;;;;18.70;15.80;;;6.30;99.90;;;;;;10547339;28;20220;-80
2022/01/24 09:24:48;;;;;;;18.10;16.17;;;6.40;99.90;;;;;;10546587;28;20195;-80
2022/01/24 09:29:52;;;;;;;17.20;14.57;;;6.30;99.90;;;;;;10544499;28;20220;-79
2022/01/24 09:34:54;;;;;;;17.90;16.00;;;6.40;99.90;;;;;;10546691;28;20290;-81
2022/01/24 09:39:56;;;;;;;17.33;15.53;;;6.40;99.90;;;;;;10545753;28;20706;-80
2022/01/24 09:45:02;;;;;;;17.80;15.10;;;6.50;99.90;;;;;;10546856;28;20282;-81
2022/01/24 09:50:06;;;;;;;17.60;15.60;;;6.50;99.90;;;;;;10525174;28;20722;-80
2022/01/24 09:55:10;;;;;;;14.20;12.80;;;6.50;99.90;;;;;;10548969;28;20200;-78
2022/01/24 10:00:16;;;;;;;13.70;12.40;;;6.50;99.90;;;;;;10522779;28;20272;-79
2022/01/24 10:05:20;;;;;;;12.37;11.23;;;6.40;99.90;;;;;;10549322;28;20226;-78
2022/01/24 10:10:41;;;;;;;11.13;10.10;;;6.30;99.90;;;;;;10547941;28;20600;-81
2022/01/24 10:21:17;;;;;;;10.33;9.47;;;6.20;99.90;;;;;;10541647;28;20753;-82
2022/01/24 10:26:19;;;;;;;9.83;9.03;;;6.20;99.90;;;;;;10533302;28;20616;-80
2022/01/24 10:31:28;;;;;;;10.33;9.40;;;6.20;99.90;;;;;;10544854;28;20246;-80
2022/01/24 10:36:37;;;;;;;9.40;8.60;;;6.20;99.90;;;;;;10569775;28;20229;-79
2022/01/24 10:47:22;;;;;;;8.10;7.40;;;6.30;99.90;;;;;;10510835;28;20222;-80
2022/01/24 10:52:26;;;;;;;7.57;6.80;;;6.40;99.90;;;;;;10535898;28;20248;-79
2022/01/24 10:57:29;;;;;;;7.20;6.60;;;6.40;99.90;;;;;;10525864;28;20246;-80
2022/01/24 11:02:40;;;;;;;8.13;7.33;;;6.50;99.90;;;;;;10547414;28;20730;-80
2022/01/24 11:07:50;;;;;;;7.70;7.00;;;6.50;99.90;;;;;;10527556;28;20239;-82
2022/01/24 11:12:53;;;;;;;7.60;7.00;;;6.50;99.90;;;;;;10521067;28;20195;-79
2022/01/24 11:17:58;;;;;;;7.27;6.67;;;6.60;99.90;;;;;;10531818;28;20230;-81
2022/01/24 11:23:05;;;;;;;7.53;6.83;;;6.60;99.90;;;;;;10543212;28;20836;-81
2022/01/24 11:28:08;;;;;;;7.13;6.43;;;6.70;99.90;;;;;;10542157;28;20242;-81
2022/01/24 11:33:14;;;;;;;7.47;6.83;;;6.70;99.90;;;;;;10541548;28;20659;-80
2022/01/24 11:38:30;;;;;;;7.00;6.40;;;6.70;99.90;;;;;;10541276;28;20238;-79
2022/01/24 11:43:35;;;;;;;7.77;7.00;;;6.70;99.90;;;;;;10538272;28;20648;-78
2022/01/24 11:48:39;;;;;;;8.03;7.33;;;6.80;99.90;;;;;;10538887;28;20248;-81
2022/01/24 11:53:46;;;;;;;5.63;5.13;;;6.90;99.90;;;;;;10522943;28;20200;-81
2022/01/24 11:58:48;;;;;;;8.23;7.30;;;6.90;99.90;;;;;;10516133;28;20243;-80
2022/01/24 12:03:53;;;;;;;7.77;6.97;;;6.90;99.90;;;;;;10543808;28;20275;-81
2022/01/24 12:09:05;;;;;;;11.00;9.87;;;7.00;99.90;;;;;;10542704;28;20579;-81
2022/01/24 12:14:19;;;;;;;10.23;9.23;;;7.00;99.90;;;;;;10523430;28;20203;-82
2022/01/24 12:19:31;;;;;;;8.97;8.17;;;7.10;99.90;;;;;;10539046;28;20234;-81
2022/01/24 12:24:45;;;;;;;8.13;7.43;;;7.10;99.90;;;;;;10549231;28;20196;-82
2022/01/24 12:29:47;;;;;;;8.63;7.67;;;7.20;99.90;;;;;;10545476;28;20216;-80
2022/01/24 12:34:50;;;;;;;8.43;7.73;;;7.20;99.90;;;;;;10548301;28;20227;-81
2022/01/24 12:39:57;;;;;;;8.07;7.30;;;7.30;99.90;;;;;;10547285;28;20329;-81
2022/01/24 12:50:30;;;;;;;7.33;6.73;;;7.40;99.90;;;;;;10551518;28;20211;-81
2022/01/24 12:55:35;;;;;;;7.13;6.53;;;7.40;99.90;;;;;;10548721;28;20196;-81
2022/01/24 13:00:44;;;;;;;7.03;6.43;;;7.50;99.90;;;;;;10566140;28;20221;-78
2022/01/24 13:05:48;;;;;;;4.90;4.50;;;7.60;99.90;;;;;;10558180;28;20192;-81
2022/01/24 13:10:50;;;;;;;7.93;6.73;;;7.60;99.90;;;;;;10552985;28;20215;-79
2022/01/24 13:21:18;;;;;;;6.60;6.00;;;7.60;99.90;;;;;;10566624;28;20237;-80
2022/01/24 13:26:20;;;;;;;7.83;5.60;;;7.70;99.90;;;;;;10551790;28;20206;-80
2022/01/24 13:31:22;;;;;;;6.47;5.87;;;7.70;99.90;;;;;;10553234;28;20218;-77
2022/01/24 13:36:26;;;;;;;7.20;5.70;;;7.80;99.90;;;;;;10535883;28;20238;-79
2022/01/24 13:41:28;;;;;;;7.20;6.17;;;7.70;99.90;;;;;;10527231;28;20255;-80
2022/01/24 13:46:32;;;;;;;6.90;6.30;;;7.70;99.90;;;;;;10520101;28;20196;-80
2022/01/24 13:51:41;;;;;;;6.00;5.50;;;7.70;99.90;;;;;;10538968;28;20347;-80
2022/01/24 13:56:44;;;;;;;5.73;5.23;;;7.80;99.90;;;;;;10522046;28;20674;-79
2022/01/24 14:01:59;;;;;;;5.53;4.97;;;7.80;99.90;;;;;;10548111;28;20282;-79
2022/01/24 14:07:04;;;;;;;6.50;5.97;;;7.80;99.90;;;;;;10545259;28;20278;-79
2022/01/24 14:12:10;;;;;;;6.07;5.50;;;7.80;99.90;;;;;;10540020;28;20223;-79
2022/01/24 14:22:41;;;;;;;5.07;4.67;;;7.80;99.90;;;;;;10543647;28;20212;-80
2022/01/24 14:27:45;;;;;;;6.03;4.87;;;7.80;99.90;;;;;;10529674;28;20223;-79
2022/01/24 14:33:05;;;;;;;8.13;5.73;;;7.80;99.90;;;;;;10511081;28;20202;-79
2022/01/24 14:38:10;;;;;;;6.00;5.40;;;7.80;99.90;;;;;;10508146;28;20339;-81
2022/01/24 14:48:47;;;;;;;5.30;4.90;;;7.90;99.90;;;;;;10529571;28;20223;-78
2022/01/24 14:53:55;;;;;;;7.53;4.70;;;7.90;99.90;;;;;;10518646;28;20206;-80
2022/01/24 14:59:00;;;;;;;5.47;5.00;;;7.90;99.90;;;;;;10527373;28;20242;-79
2022/01/24 15:04:03;;;;;;;7.53;6.40;;;7.90;99.90;;;;;;10520113;28;20290;-79
2022/01/24 15:09:11;;;;;;;5.87;4.50;;;7.90;99.90;;;;;;10544264;28;20253;-79
2022/01/24 15:14:18;;;;;;;6.53;5.80;;;7.90;99.90;;;;;;10528439;28;20202;-79
2022/01/24 15:29:58;;;;;;;7.20;5.50;;;7.70;99.90;;;;;;10549937;28;20679;-79
2022/01/24 15:35:00;;;;;;;5.13;4.60;;;7.50;99.90;;;;;;10537895;28;20204;-79
2022/01/24 15:40:05;;;;;;;5.80;4.87;;;7.40;99.90;;;;;;10525529;28;20753;-78
2022/01/24 15:50:24;;;;;;;4.80;4.20;;;7.20;99.90;;;;;;10540554;28;20211;-80
2022/01/24 15:55:32;;;;;;;5.47;4.10;;;7.00;99.90;;;;;;10527722;28;20223;-80
2022/01/24 16:00:38;;;;;;;4.67;4.03;;;6.90;99.90;;;;;;10536311;28;20216;-79
2022/01/24 16:05:41;;;;;;;5.27;4.30;;;6.80;99.90;;;;;;10538609;28;20203;-79
2022/01/24 16:10:45;;;;;;;5.40;4.90;;;6.70;99.90;;;;;;10552095;28;20286;-80
2022/01/24 16:15:47;;;;;;;5.20;4.70;;;6.60;99.90;;;;;;10525971;28;20195;-80
2022/01/24 16:21:14;;;;;;;6.77;5.47;;;6.60;99.90;;;;;;10554846;28;20207;-80
2022/01/24 16:26:17;;;;;;;7.13;4.77;;;6.50;99.90;;;;;;10531369;28;20283;-81
2022/01/24 16:31:20;;;;;;;6.43;5.07;;;6.40;99.90;;;;;;10540841;28;20599;-79
2022/01/24 16:36:22;;;;;;;5.90;4.83;;;6.30;99.90;;;;;;10550113;28;20188;-80
2022/01/24 16:41:35;;;;;;;10.10;4.50;;;6.20;99.90;;;;;;10539848;28;20266;-80
2022/01/24 16:51:57;;;;;;;5.40;4.90;;;6.00;99.90;;;;;;10551850;28;20274;-79
2022/01/24 16:57:02;;;;;;;8.70;5.03;;;5.90;99.90;;;;;;10558999;28;20208;-80
2022/01/24 17:02:07;;;;;;;7.20;5.37;;;5.90;99.90;;;;;;10549727;28;20730;-80
2022/01/24 17:07:09;;;;;;;7.73;6.00;;;5.80;99.90;;;;;;10546758;28;20289;-80
2022/01/24 17:12:13;;;;;;;7.80;5.93;;;5.80;99.90;;;;;;10543474;28;20211;-80
2022/01/24 17:17:16;;;;;;;11.43;10.27;;;5.80;99.90;;;;;;10530802;28;20223;-80
2022/01/24 17:22:18;;;;;;;11.70;10.60;;;5.70;99.90;;;;;;10551910;28;20234;-80
2022/01/24 17:27:21;;;;;;;10.07;9.17;;;5.70;99.90;;;;;;10554303;28;20212;-80
2022/01/24 17:32:24;;;;;;;7.53;6.93;;;5.70;99.90;;;;;;10549436;28;20663;-80
2022/01/24 17:37:26;;;;;;;6.83;6.23;;;5.70;99.90;;;;;;10531978;28;20228;-80
2022/01/24 17:42:30;;;;;;;10.73;7.57;;;5.70;99.90;;;;;;10546835;28;20221;-83
2022/01/24 17:47:32;;;;;;;8.93;8.03;;;5.70;99.90;;;;;;10519724;28;20306;-83
2022/01/24 17:52:34;;;;;;;14.57;12.00;;;5.70;99.90;;;;;;10544807;28;20223;-84
2022/01/24 17:57:38;;;;;;;10.73;9.63;;;5.60;99.90;;;;;;10531194;28;20223;-84
2022/01/24 18:02:41;;;;;;;9.00;8.10;;;5.60;99.90;;;;;;10510368;28;20258;-81
2022/01/24 18:07:47;;;;;;;9.83;8.93;;;5.70;99.90;;;;;;10538998;28;20235;-82
2022/01/24 18:12:53;;;;;;;12.60;10.20;;;5.70;99.90;;;;;;10539273;28;20278;-83
2022/01/24 18:17:57;;;;;;;14.63;13.23;;;5.60;99.90;;;;;;10519266;28;20242;-84
2022/01/24 18:22:59;;;;;;;45.50;31.57;;;5.60;99.90;;;;;;10532721;28;20211;-82
2022/01/24 18:28:03;;;;;;;36.70;28.07;;;5.50;99.90;;;;;;10543768;28;20222;-82
2022/01/24 18:33:05;;;;;;;13.80;12.40;;;5.50;99.90;;;;;;10515723;28;20207;-82
2022/01/24 18:38:08;;;;;;;15.03;13.63;;;5.40;99.90;;;;;;10514306;28;20700;-80
2022/01/24 18:43:15;;;;;;;15.07;13.40;;;5.30;99.90;;;;;;10542536;28;20216;-82
2022/01/24 18:48:17;;;;;;;14.37;12.90;;;5.20;99.90;;;;;;10546157;28;20211;-81
2022/01/24 18:53:19;;;;;;;19.83;17.30;;;5.10;99.90;;;;;;10528243;28;20222;-82
2022/01/24 18:58:25;;;;;;;20.03;17.93;;;5.00;99.90;;;;;;10561248;28;20218;-80
2022/01/24 19:03:31;;;;;;;21.90;18.53;;;5.00;99.90;;;;;;10538452;28;20297;-81
2022/01/24 19:08:33;;;;;;;16.50;14.80;;;5.00;99.90;;;;;;10527387;28;20632;-81
2022/01/24 19:13:37;;;;;;;13.80;12.50;;;4.90;99.90;;;;;;10513329;28;20219;-80
2022/01/24 19:18:47;;;;;;;14.40;12.83;;;4.90;99.90;;;;;;10535545;28;20675;-82
2022/01/24 19:23:50;;;;;;;16.00;13.60;;;4.90;99.90;;;;;;10553111;28;20220;-82
2022/01/24 19:28:54;;;;;;;14.70;13.23;;;4.80;99.90;;;;;;10552353;28;20216;-81
2022/01/24 19:33:56;;;;;;;14.40;12.90;;;4.70;99.90;;;;;;10525839;28;20279;-84
2022/01/24 19:38:58;;;;;;;15.40;13.80;;;4.60;99.90;;;;;;10540199;28;20231;-82
2022/01/24 19:44:01;;;;;;;15.17;13.57;;;4.70;99.90;;;;;;10532290;28;20222;-82
2022/01/24 19:49:04;;;;;;;15.90;14.30;;;4.50;99.90;;;;;;10535582;28;20227;-84
2022/01/24 19:54:13;;;;;;;17.33;15.57;;;4.50;99.90;;;;;;10550982;28;20188;-85
2022/01/24 19:59:21;;;;;;;16.23;14.53;;;4.40;99.90;;;;;;10526844;28;20247;-83
2022/01/24 20:04:23;;;;;;;15.83;14.33;;;4.40;99.90;;;;;;10550056;28;20687;-81
2022/01/24 20:09:26;;;;;;;16.43;14.73;;;4.40;99.90;;;;;;10526027;28;20219;-81
2022/01/24 20:14:29;;;;;;;16.23;14.53;;;4.40;99.90;;;;;;10534151;28;20204;-84
2022/01/24 20:19:34;;;;;;;16.50;14.90;;;4.30;99.90;;;;;;10531229;28;20255;-82
2022/01/24 20:24:42;;;;;;;18.63;15.80;;;4.40;99.90;;;;;;10555519;28;20227;-84
2022/01/24 20:29:47;;;;;;;17.60;15.23;;;4.40;99.90;;;;;;10544562;28;20224;-82
2022/01/24 20:34:50;;;;;;;19.73;17.73;;;4.40;99.90;;;;;;10541182;28;20253;-82
2022/01/24 20:39:52;;;;;;;19.20;17.30;;;4.40;99.90;;;;;;10541512;28;20255;-80
2022/01/24 20:44:55;;;;;;;17.23;15.50;;;4.40;99.90;;;;;;10534328;28;20231;-83
2022/01/24 20:49:59;;;;;;;17.70;15.87;;;4.40;99.90;;;;;;10526038;28;20211;-84
2022/01/24 20:55:01;;;;;;;19.27;17.20;;;4.30;99.90;;;;;;10536786;28;20249;-82
2022/01/24 21:00:07;;;;;;;17.80;16.03;;;4.20;99.90;;;;;;10524620;28;20265;-84
2022/01/24 21:05:10;;;;;;;16.80;15.10;;;4.20;99.90;;;;;;10527853;28;20212;-83
2022/01/24 21:10:17;;;;;;;20.70;17.63;;;4.20;99.90;;;;;;10543268;28;20254;-83
2022/01/24 21:15:26;;;;;;;19.97;17.87;;;4.20;99.90;;;;;;10544169;28;20195;-82
2022/01/24 21:20:28;;;;;;;19.43;17.20;;;4.10;99.90;;;;;;10542330;28;20247;-83
2022/01/24 21:25:31;;;;;;;19.70;17.70;;;4.20;99.90;;;;;;10534954;28;20212;-84
2022/01/24 21:30:35;;;;;;;19.03;17.00;;;4.10;99.90;;;;;;10543206;28;20691;-83
2022/01/24 21:35:37;;;;;;;17.77;15.87;;;4.10;99.90;;;;;;10544878;28;20663;-82
2022/01/24 21:40:42;;;;;;;18.70;16.73;;;4.10;99.90;;;;;;10545521;28;20319;-82
2022/01/24 21:45:46;;;;;;;18.13;15.60;;;4.10;99.90;;;;;;10561579;28;20203;-82
2022/01/24 21:50:51;;;;;;;17.13;15.33;;;4.00;99.90;;;;;;10538671;28;20224;-80
2022/01/24 21:55:56;;;;;;;17.47;15.40;;;4.00;99.90;;;;;;10541068;28;20215;-81
2022/01/24 22:01:03;;;;;;;18.57;16.60;;;4.00;99.90;;;;;;10534671;28;20220;-83
2022/01/24 22:06:05;;;;;;;18.37;15.77;;;3.90;99.90;;;;;;10516566;28;20231;-81
2022/01/24 22:11:08;;;;;;;19.33;17.33;;;3.90;99.90;;;;;;10515552;28;20212;-81
2022/01/24 22:16:12;;;;;;;17.97;16.17;;;3.90;99.90;;;;;;10521706;28;20566;-81
2022/01/24 22:21:14;;;;;;;18.07;16.27;;;3.90;99.90;;;;;;10523258;28;20249;-80
2022/01/24 22:26:21;;;;;;;17.93;16.03;;;3.90;99.90;;;;;;10542934;28;20282;-82
2022/01/24 22:31:27;;;;;;;18.40;16.57;;;3.90;99.90;;;;;;10554039;28;20246;-81
2022/01/24 22:36:31;;;;;;;20.03;16.60;;;3.80;99.90;;;;;;10530751;28;20203;-81
2022/01/24 22:46:54;;;;;;;17.90;16.03;;;3.80;99.90;;;;;;10522954;28;20201;-81
2022/01/24 22:51:58;;;;;;;18.97;16.23;;;3.80;99.90;;;;;;10522238;28;20679;-82
2022/01/24 22:57:10;;;;;;;19.40;17.40;;;3.80;99.90;;;;;;10524106;28;20203;-81
2022/01/24 23:02:17;;;;;;;17.87;16.07;;;3.80;99.90;;;;;;10529368;28;20220;-81
2022/01/24 23:07:19;;;;;;;19.80;17.73;;;3.70;99.90;;;;;;10526866;28;20311;-81
2022/01/24 23:12:22;;;;;;;20.10;17.97;;;3.60;99.90;;;;;;10546981;28;20555;-81
2022/01/24 23:17:34;;;;;;;18.07;16.17;;;3.60;99.90;;;;;;10525842;28;20247;-82
2022/01/24 23:22:40;;;;;;;19.20;17.27;;;3.60;99.90;;;;;;10526142;28;20220;-82
2022/01/24 23:28:06;;;;;;;19.80;17.40;;;3.50;99.90;;;;;;10540387;28;20760;-82
2022/01/24 23:33:22;;;;;;;20.77;18.57;;;3.30;99.90;;;;;;10524664;28;20203;-81
2022/01/24 23:43:47;;;;;;;21.20;18.30;;;3.20;99.90;;;;;;10555449;28;20335;-81
2022/01/24 23:48:51;;;;;;;21.90;19.43;;;3.20;99.90;;;;;;10532954;28;20219;-81
2022/01/24 23:54:03;;;;;;;21.37;19.07;;;3.30;99.90;;;;;;10538100;28;20216;-81
